createdAt,value
2018-04-24T06:47:31.691Z,7216.00
2018-04-24T06:48:31.247Z,7284.00
2018-04-24T06:49:31.406Z,7336.00
2018-04-24T06:50:31.582Z,7340.00
2018-04-24T06:51:31.755Z,7312.00
2018-04-24T06:52:31.921Z,7292.00
2018-04-24T06:53:32.089Z,7220.00
2018-04-24T06:54:32.263Z,7144.00
2018-04-24T06:55:32.425Z,7104.00
2018-04-24T06:56:32.593Z,7092.00
2018-04-24T06:57:32.771Z,7116.00
2018-04-24T06:58:32.935Z,7104.00
2018-04-24T06:59:33.100Z,7076.00
2018-04-24T07:00:33.328Z,7152.00
2018-04-24T07:01:33.435Z,7268.00
2018-04-24T07:02:33.605Z,7388.00
2018-04-24T07:03:33.783Z,7444.00
2018-04-24T07:04:33.952Z,7540.00
2018-04-24T07:05:34.116Z,7644.00
2018-04-24T07:06:34.288Z,7756.00
2018-04-24T07:07:34.454Z,7864.00
2018-04-24T07:08:34.620Z,8040.00
2018-04-24T07:09:34.792Z,8200.00
2018-04-24T07:10:34.965Z,8408.00
2018-04-24T07:11:35.131Z,8532.00
2018-04-24T07:12:35.297Z,8704.00
2018-04-24T07:13:35.474Z,8740.00
2018-04-24T07:14:35.643Z,8836.00
2018-04-24T07:15:35.811Z,8928.00
2018-04-24T07:16:35.981Z,8640.00
2018-04-24T07:17:36.151Z,8280.00
2018-04-24T07:18:36.326Z,8148.00
2018-04-24T07:19:36.498Z,8024.00
2018-04-24T07:20:36.662Z,8060.00
2018-04-24T07:21:36.829Z,7936.00
2018-04-24T07:22:36.998Z,7808.00
2018-04-24T07:23:37.168Z,7936.00
2018-04-24T07:24:37.341Z,7912.00
2018-04-24T07:25:37.506Z,7788.00
2018-04-24T07:26:37.673Z,7624.00
2018-04-24T07:27:37.848Z,7748.00
2018-04-24T07:28:38.017Z,8312.00
2018-04-24T07:29:38.191Z,8100.00
2018-04-24T07:30:38.366Z,8140.00
2018-04-24T07:31:38.530Z,7992.00
2018-04-24T07:32:38.696Z,7904.00
2018-04-24T07:33:38.867Z,8052.00
2018-04-24T07:34:39.038Z,8308.00
2018-04-24T07:35:39.207Z,8476.00
2018-04-24T07:36:39.377Z,8756.00
2018-04-24T07:37:39.546Z,9064.00
2018-04-24T07:38:39.718Z,9328.00
2018-04-24T07:39:39.889Z,9492.00
2018-04-24T07:40:40.060Z,9712.00
2018-04-24T07:41:40.228Z,9772.00
2018-04-24T07:42:40.399Z,9804.00
2018-04-24T07:43:40.579Z,9540.00
2018-04-24T07:44:40.741Z,9492.00
2018-04-24T07:45:40.919Z,9452.00
2018-04-24T07:46:41.182Z,9504.00
2018-04-24T07:47:41.258Z,9388.00
2018-04-24T07:48:41.425Z,9376.00
2018-04-24T07:49:41.598Z,9460.00
2018-04-24T07:50:41.768Z,9500.00
2018-04-24T07:51:41.936Z,9868.00
2018-04-24T07:52:42.107Z,9684.00
2018-04-24T07:53:42.274Z,9396.00
2018-04-24T07:54:42.444Z,9308.00
2018-04-24T07:55:42.617Z,9328.00
2018-04-24T07:56:42.787Z,9404.00
2018-04-24T07:57:42.956Z,9668.00
2018-04-24T07:58:43.129Z,9568.00
2018-04-24T07:59:43.297Z,9784.00
2018-04-24T08:00:43.466Z,9936.00
2018-04-24T08:01:43.636Z,9940.00
2018-04-24T08:02:43.812Z,10112.00
2018-04-24T08:03:43.979Z,10472.00
2018-04-24T08:04:44.151Z,10632.00
2018-04-24T08:05:44.316Z,10576.00
2018-04-24T08:06:44.489Z,10668.00
2018-04-24T08:07:44.658Z,10796.00
2018-04-24T08:08:44.825Z,10796.00
2018-04-24T08:09:44.997Z,10848.00
2018-04-24T08:10:45.172Z,10808.00
2018-04-24T08:11:45.338Z,10708.00
2018-04-24T08:12:45.507Z,10788.00
2018-04-24T08:13:45.677Z,10784.00
2018-04-24T08:14:45.859Z,10856.00
2018-04-24T08:15:46.026Z,10844.00
2018-04-24T08:16:46.200Z,11228.00
2018-04-24T08:17:46.369Z,11648.00
2018-04-24T08:18:46.537Z,11808.00
2018-04-24T08:19:46.716Z,11972.00
2018-04-24T08:20:46.882Z,8788.00
2018-04-24T08:21:47.057Z,11676.00
2018-04-24T08:22:47.309Z,11720.00
2018-04-24T08:23:47.406Z,11280.00
2018-04-24T08:24:47.578Z,12812.00
2018-04-24T08:25:47.747Z,12432.00
2018-04-24T08:26:47.916Z,12932.00
2018-04-24T08:27:48.089Z,12788.00
2018-04-24T08:28:48.256Z,13220.00
2018-04-24T08:29:48.431Z,13288.00
2018-04-24T08:30:48.597Z,13152.00
2018-04-24T08:31:48.769Z,12964.00
2018-04-24T08:32:48.947Z,12292.00
2018-04-24T08:33:49.119Z,12976.00
2018-04-24T08:34:49.292Z,12896.00
2018-04-24T08:35:49.463Z,14048.00
2018-04-24T08:36:49.639Z,14240.00
2018-04-24T08:37:49.811Z,14508.00
2018-04-24T08:38:49.982Z,13924.00
2018-04-24T08:39:50.153Z,14240.00
2018-04-24T08:40:50.329Z,13840.00
2018-04-24T08:41:50.495Z,14184.00
2018-04-24T08:42:50.671Z,14860.00
2018-04-24T08:43:50.845Z,16192.00
2018-04-24T08:44:51.019Z,18048.00
2018-04-24T08:45:51.199Z,18528.00
2018-04-24T08:46:51.366Z,18368.00
2018-04-24T08:47:51.552Z,18688.00
2018-04-24T08:48:51.717Z,16480.00
2018-04-24T08:49:51.890Z,15128.00
2018-04-24T08:50:52.062Z,15496.00
2018-04-24T08:51:52.234Z,15608.00
2018-04-24T08:52:52.414Z,14520.00
2018-04-24T08:53:52.589Z,13644.00
2018-04-24T08:54:52.762Z,13604.00
2018-04-24T08:55:52.930Z,14716.00
2018-04-24T08:56:53.106Z,15192.00
2018-04-24T08:57:53.290Z,14624.00
2018-04-24T08:58:53.465Z,16096.00
2018-04-24T08:59:53.642Z,17376.00
2018-04-24T09:00:53.816Z,19456.00
2018-04-24T09:01:54.065Z,19104.00
2018-04-24T09:02:54.185Z,17472.00
2018-04-24T09:03:54.351Z,18880.00
2018-04-24T09:04:54.534Z,21088.00
2018-04-24T09:05:54.705Z,21216.00
2018-04-24T09:06:54.877Z,20288.00
2018-04-24T09:07:55.059Z,22976.00
2018-04-24T09:08:55.240Z,21824.00
2018-04-24T09:09:55.405Z,20064.00
2018-04-24T09:10:55.573Z,18624.00
2018-04-24T09:11:55.749Z,17344.00
2018-04-24T09:12:55.923Z,30368.00
2018-04-24T09:13:56.094Z,36832.00
2018-04-24T09:14:56.271Z,34944.00
2018-04-24T09:15:56.441Z,28768.00
2018-04-24T09:16:56.617Z,27072.00
2018-04-24T09:17:56.790Z,28032.00
2018-04-24T09:18:56.970Z,26208.00
2018-04-24T09:19:57.133Z,25088.00
2018-04-24T09:20:57.308Z,27136.00
2018-04-24T09:21:57.486Z,30016.00
2018-04-24T09:22:57.661Z,34656.00
2018-04-24T09:23:57.836Z,35776.00
2018-04-24T09:24:58.008Z,31520.00
2018-04-24T09:25:58.189Z,33792.00
2018-04-24T09:26:58.376Z,31552.00
2018-04-24T09:27:58.534Z,33344.00
2018-04-24T09:28:58.718Z,30592.00
2018-04-24T09:29:58.894Z,26400.00
2018-04-24T09:30:59.064Z,21824.00
2018-04-24T09:31:59.251Z,20768.00
2018-04-24T09:32:59.431Z,20128.00
2018-04-24T09:33:59.605Z,21120.00
2018-04-24T09:34:59.791Z,29280.00
2018-04-24T09:35:59.988Z,23296.00
2018-04-24T09:37:00.153Z,43328.00
2018-04-24T09:38:00.342Z,41344.00
2018-04-24T09:39:00.613Z,19136.00
2018-04-24T09:40:00.706Z,17376.00
2018-04-24T09:41:00.905Z,20576.00
2018-04-24T09:42:01.069Z,20928.00
2018-04-24T09:43:01.249Z,20544.00
2018-04-24T09:44:01.465Z,19136.00
2018-04-24T09:45:01.598Z,19328.00
2018-04-24T09:46:01.786Z,19968.00
2018-04-24T09:47:01.973Z,19424.00
2018-04-24T09:48:02.359Z,18432.00
2018-04-24T09:49:02.320Z,19008.00
2018-04-24T09:50:02.505Z,19392.00
2018-04-24T09:51:02.684Z,20288.00
2018-04-24T09:52:02.860Z,22016.00
2018-04-24T09:53:03.030Z,22240.00
2018-04-24T09:54:03.206Z,21568.00
2018-04-24T09:55:03.399Z,23072.00
2018-04-24T09:56:03.557Z,25216.00
2018-04-24T09:57:03.725Z,24704.00
2018-04-24T09:58:03.888Z,24256.00
2018-04-24T09:59:04.067Z,24736.00
2018-04-24T10:00:04.241Z,24352.00
2018-04-24T10:01:04.432Z,21248.00
2018-04-24T10:02:04.595Z,22368.00
2018-04-24T10:03:04.773Z,20992.00
2018-04-24T10:04:04.946Z,19936.00
2018-04-24T10:05:05.123Z,21696.00
2018-04-24T10:06:05.345Z,24800.00
2018-04-24T10:07:05.514Z,21600.00
2018-04-24T10:08:05.694Z,21504.00
2018-04-24T10:09:05.875Z,16092.00
2018-04-24T10:10:06.040Z,25568.00
2018-04-24T10:11:06.227Z,24704.00
2018-04-24T10:12:06.413Z,24480.00
2018-04-24T10:13:06.682Z,21184.00
2018-04-24T10:14:06.780Z,21088.00
2018-04-24T10:15:06.958Z,23520.00
2018-04-24T10:16:07.132Z,26048.00
2018-04-24T10:17:07.306Z,26144.00
2018-04-24T10:18:07.477Z,24448.00
2018-04-24T10:19:07.663Z,24512.00
2018-04-24T10:20:07.851Z,26944.00
2018-04-24T10:21:08.020Z,28000.00
2018-04-24T10:22:08.199Z,25408.00
2018-04-24T10:23:08.379Z,25696.00
2018-04-24T10:24:08.552Z,24608.00
2018-04-24T10:25:08.724Z,24768.00
2018-04-24T10:26:08.904Z,23648.00
2018-04-24T10:27:09.092Z,25728.00
2018-04-24T10:28:09.273Z,30016.00
2018-04-24T10:29:09.448Z,29408.00
2018-04-24T10:30:09.627Z,31488.00
2018-04-24T10:31:09.804Z,31552.00
2018-04-24T10:32:09.976Z,32320.00
2018-04-24T10:33:10.154Z,32128.00
2018-04-24T10:34:10.326Z,32384.00
2018-04-24T10:35:10.506Z,37600.00
2018-04-24T10:36:10.676Z,70048.00
2018-04-24T10:37:10.854Z,41600.00
2018-04-24T10:38:11.031Z,51712.00
2018-04-24T10:39:11.204Z,30848.00
2018-04-24T10:40:11.380Z,43840.00
2018-04-24T10:41:11.567Z,73696.00
2018-04-24T10:42:11.750Z,108736.00
2018-04-24T10:43:11.924Z,113024.00
2018-04-24T10:44:12.100Z,75616.00
2018-04-24T10:45:12.280Z,77600.00
2018-04-24T10:46:12.455Z,117216.00
2018-04-24T10:47:12.644Z,115200.00
2018-04-24T10:48:12.815Z,115680.00
2018-04-24T10:49:12.992Z,105408.00
2018-04-24T10:50:13.176Z,110112.00
2018-04-24T10:51:13.357Z,129056.00
2018-04-24T10:52:13.532Z,131808.00
2018-04-24T10:53:13.712Z,134784.00
2018-04-24T10:54:13.897Z,37440.00
2018-04-24T10:55:14.065Z,142560.00
2018-04-24T10:56:14.264Z,108992.00
2018-04-24T10:57:14.447Z,42208.00
2018-04-24T10:58:14.639Z,93504.00
2018-04-24T10:59:14.865Z,102240.00
2018-04-24T11:00:15.018Z,75552.00
2018-04-24T11:01:15.199Z,48672.00
2018-04-24T11:02:15.375Z,52608.00
2018-04-24T11:03:15.561Z,68352.00
2018-04-24T11:04:15.742Z,66336.00
2018-04-24T11:05:15.919Z,79520.00
2018-04-24T11:06:16.099Z,82400.00
2018-04-24T11:07:16.284Z,68544.00
2018-04-24T11:08:16.468Z,82528.00
2018-04-24T11:09:16.653Z,81792.00
2018-04-24T11:10:16.846Z,84896.00
2018-04-24T11:11:17.026Z,57664.00
2018-04-24T11:12:17.208Z,33472.00
2018-04-24T11:13:17.405Z,40608.00
2018-04-24T11:14:17.591Z,20800.00
2018-04-24T11:15:17.771Z,18976.00
2018-04-24T11:16:17.975Z,17920.00
2018-04-24T11:17:18.146Z,17824.00
2018-04-24T11:18:18.344Z,16480.00
2018-04-24T11:19:18.520Z,15060.00
2018-04-24T11:20:18.695Z,14592.00
2018-04-24T11:21:18.959Z,14184.00
2018-04-24T11:22:19.073Z,13860.00
2018-04-24T11:23:19.251Z,15012.00
2018-04-24T11:24:19.425Z,15964.00
2018-04-24T11:25:19.613Z,15756.00
2018-04-24T11:26:19.788Z,15980.00
2018-04-24T11:27:19.965Z,18592.00
2018-04-24T11:28:20.143Z,19808.00
2018-04-24T11:29:20.338Z,25280.00
2018-04-24T11:30:20.530Z,29632.00
2018-04-24T11:31:20.687Z,14928.00
2018-04-24T11:32:20.876Z,13988.00
2018-04-24T11:33:21.053Z,14340.00
2018-04-24T11:34:21.286Z,14620.00
2018-04-24T11:35:21.425Z,14472.00
2018-04-24T11:36:21.604Z,15844.00
2018-04-24T11:37:21.783Z,15312.00
2018-04-24T11:38:21.984Z,15944.00
2018-04-24T11:39:22.136Z,14388.00
2018-04-24T11:40:22.320Z,14188.00
2018-04-24T11:41:22.525Z,13720.00
2018-04-24T11:42:23.440Z,13792.00
2018-04-24T11:43:23.197Z,13740.00
2018-04-24T11:44:23.028Z,14412.00
2018-04-24T11:45:23.383Z,17184.00
2018-04-24T11:46:23.836Z,13832.00
2018-04-24T11:47:23.753Z,12092.00
2018-04-24T11:48:24.063Z,12068.00
2018-04-24T11:49:23.915Z,13404.00
2018-04-24T11:50:24.222Z,13152.00
2018-04-24T11:51:24.409Z,13384.00
2018-04-24T11:52:24.462Z,14740.00
2018-04-24T11:53:24.642Z,14588.00
2018-04-24T11:54:26.044Z,15156.00
2018-04-24T11:55:24.960Z,17952.00
2018-04-24T11:56:25.127Z,17664.00
2018-04-24T11:57:25.302Z,21632.00
2018-04-24T11:58:25.497Z,26400.00
2018-04-24T11:59:25.646Z,20512.00
2018-04-24T12:00:25.820Z,21280.00
2018-04-24T12:01:26.005Z,20000.00
2018-04-24T12:02:26.198Z,24320.00
2018-04-24T12:03:26.379Z,19008.00
2018-04-24T12:04:26.548Z,19808.00
2018-04-24T12:05:26.732Z,20448.00
2018-04-24T12:06:26.907Z,26592.00
2018-04-24T12:07:27.083Z,21696.00
2018-04-24T12:08:27.251Z,23168.00
2018-04-24T12:09:27.430Z,18592.00
2018-04-24T12:10:27.600Z,17152.00
2018-04-24T12:11:27.792Z,18368.00
2018-04-24T12:12:27.968Z,18336.00
2018-04-24T12:13:28.134Z,14556.00
2018-04-24T12:14:28.324Z,13216.00
2018-04-24T12:15:28.501Z,11956.00
2018-04-24T12:16:28.681Z,10828.00
2018-04-24T12:17:28.859Z,10508.00
2018-04-24T12:18:29.023Z,10472.00
2018-04-24T12:19:29.206Z,10400.00
2018-04-24T12:20:29.371Z,9664.00
2018-04-24T12:21:29.547Z,9404.00
2018-04-24T12:22:29.724Z,9580.00
2018-04-24T12:23:29.987Z,10020.00
2018-04-24T12:24:30.129Z,10408.00
2018-04-24T12:25:30.210Z,10712.00
2018-04-24T12:26:30.380Z,11236.00
2018-04-24T12:27:30.553Z,12012.00
2018-04-24T12:28:30.729Z,12664.00
2018-04-24T12:29:30.902Z,13312.00
2018-04-24T12:30:31.080Z,13700.00
2018-04-24T12:31:31.243Z,13644.00
2018-04-24T12:32:31.433Z,15416.00
2018-04-24T12:33:31.608Z,18752.00
2018-04-24T12:34:31.789Z,17856.00
2018-04-24T12:35:31.968Z,19616.00
2018-04-24T12:36:32.137Z,24160.00
2018-04-24T12:37:32.325Z,20544.00
2018-04-24T12:38:32.498Z,18496.00
2018-04-24T12:39:32.670Z,19488.00
2018-04-24T12:40:32.845Z,22336.00
2018-04-24T12:41:33.019Z,23808.00
2018-04-24T12:42:33.192Z,22848.00
2018-04-24T12:43:33.393Z,22752.00
2018-04-24T12:44:33.537Z,22016.00
2018-04-24T12:45:33.703Z,23808.00
2018-04-24T12:46:33.876Z,22048.00
2018-04-24T12:47:34.053Z,20800.00
2018-04-24T12:48:34.228Z,18944.00
2018-04-24T12:49:34.398Z,17376.00
2018-04-24T12:50:34.585Z,17696.00
2018-04-24T12:51:34.757Z,17600.00
2018-04-24T12:52:34.928Z,16452.00
2018-04-24T12:53:35.108Z,16832.00
2018-04-24T12:54:35.275Z,16768.00
2018-04-24T12:55:35.461Z,15068.00
2018-04-24T12:56:35.635Z,13232.00
2018-04-24T12:57:35.818Z,12372.00
2018-04-24T12:58:35.986Z,13292.00
2018-04-24T12:59:36.170Z,14056.00
2018-04-24T13:00:36.340Z,14680.00
2018-04-24T13:01:36.518Z,15220.00
2018-04-24T13:02:36.688Z,14772.00
2018-04-24T13:03:36.863Z,16768.00
2018-04-24T13:04:37.125Z,17472.00
2018-04-24T13:05:37.212Z,19200.00
2018-04-24T13:06:37.386Z,20704.00
2018-04-24T13:07:37.562Z,20192.00
2018-04-24T13:08:37.737Z,20160.00
2018-04-24T13:09:38.004Z,21056.00
2018-04-24T13:10:38.076Z,22048.00
2018-04-24T13:11:38.268Z,20960.00
2018-04-24T13:12:38.445Z,22912.00
2018-04-24T13:13:38.616Z,25952.00
2018-04-24T13:14:38.795Z,20896.00
2018-04-24T13:15:38.970Z,21632.00
2018-04-24T13:16:39.143Z,20480.00
2018-04-24T13:17:39.316Z,20672.00
2018-04-24T13:18:39.498Z,20160.00
2018-04-24T13:19:39.664Z,20000.00
2018-04-24T13:20:39.854Z,22336.00
2018-04-24T13:21:40.012Z,23392.00
2018-04-24T13:22:40.184Z,22432.00
2018-04-24T13:23:40.364Z,23648.00
2018-04-24T13:24:40.537Z,24640.00
2018-04-24T13:25:40.856Z,28320.00
2018-04-24T13:26:40.882Z,21664.00
2018-04-24T13:27:41.060Z,18720.00
2018-04-24T13:28:41.247Z,17376.00
2018-04-24T13:29:41.420Z,16476.00
2018-04-24T13:30:41.588Z,17632.00
2018-04-24T13:31:41.758Z,16736.00
2018-04-24T13:32:41.936Z,16224.00
2018-04-24T13:33:42.110Z,16032.00
2018-04-24T13:34:42.276Z,15764.00
2018-04-24T13:35:42.459Z,15844.00
2018-04-24T13:36:42.630Z,16072.00
2018-04-24T13:37:42.819Z,18112.00
2018-04-24T13:38:42.989Z,17760.00
2018-04-24T13:39:43.169Z,17120.00
2018-04-24T13:40:43.349Z,16328.00
2018-04-24T13:41:43.540Z,16068.00
2018-04-24T13:42:43.678Z,15956.00
2018-04-24T13:43:43.863Z,15680.00
2018-04-24T13:45:37.779Z,15248.00
2018-04-24T13:46:37.304Z,15404.00
2018-04-24T13:47:37.729Z,15900.00
2018-04-24T13:48:37.674Z,17216.00
2018-04-24T13:49:37.856Z,16560.00
2018-04-24T13:50:38.833Z,16052.00
2018-04-24T13:51:38.461Z,17952.00
2018-04-24T13:52:38.458Z,17408.00
2018-04-24T13:53:38.617Z,15692.00
2018-04-24T13:54:38.810Z,15280.00
2018-04-24T13:55:38.984Z,15404.00
2018-04-24T13:56:39.171Z,16116.00
2018-04-24T13:57:39.349Z,16036.00
2018-04-24T13:58:39.541Z,15596.00
2018-04-24T13:59:39.714Z,15668.00
2018-04-24T14:00:39.929Z,14612.00
2018-04-24T14:01:40.066Z,14692.00
2018-04-24T14:02:40.235Z,14040.00
2018-04-24T14:03:40.426Z,14084.00
2018-04-24T14:04:40.608Z,14396.00
2018-04-24T14:05:40.780Z,13868.00
2018-04-24T14:06:40.953Z,13680.00
2018-04-24T14:07:41.144Z,13524.00
2018-04-24T14:08:41.321Z,13324.00
2018-04-24T14:09:41.495Z,13348.00
2018-04-24T14:10:41.674Z,13300.00
2018-04-24T14:11:41.837Z,13628.00
2018-04-24T14:12:42.028Z,13608.00
2018-04-24T14:13:42.214Z,15524.00
2018-04-24T14:14:42.389Z,19040.00
2018-04-24T14:15:42.565Z,16696.00
2018-04-24T14:16:42.836Z,14340.00
2018-04-24T14:17:42.881Z,14004.00
2018-04-24T14:18:43.058Z,13708.00
2018-04-24T14:19:43.249Z,13500.00
2018-04-24T14:20:43.423Z,14348.00
2018-04-24T14:21:43.679Z,13784.00
2018-04-24T14:22:43.772Z,14624.00
2018-04-24T14:23:43.950Z,14056.00
2018-04-24T14:24:44.123Z,13804.00
2018-04-24T14:25:44.303Z,15308.00
2018-04-24T14:26:44.486Z,23840.00
2018-04-24T14:27:44.656Z,20000.00
2018-04-24T14:28:44.907Z,22208.00
2018-04-24T14:29:44.968Z,21088.00
2018-04-24T14:30:45.137Z,18496.00
2018-04-24T14:31:45.318Z,20800.00
2018-04-24T14:32:45.489Z,16608.00
2018-04-24T14:33:45.664Z,15104.00
2018-04-24T14:34:45.846Z,15204.00
2018-04-24T14:35:46.021Z,17376.00
2018-04-24T14:36:46.197Z,15752.00
2018-04-24T14:37:46.371Z,13368.00
2018-04-24T14:38:46.544Z,14636.00
2018-04-24T14:39:46.725Z,13320.00
2018-04-24T14:40:46.899Z,13236.00
2018-04-24T14:41:47.077Z,13316.00
2018-04-24T14:42:47.339Z,13592.00
2018-04-24T14:43:47.437Z,13560.00
2018-04-24T14:44:47.599Z,13396.00
2018-04-24T14:45:47.771Z,13208.00
2018-04-24T14:46:47.946Z,13140.00
2018-04-24T14:47:48.120Z,14468.00
2018-04-24T14:48:48.348Z,13232.00
2018-04-24T14:49:48.468Z,13260.00
2018-04-24T14:50:48.650Z,15392.00
2018-04-24T14:51:48.818Z,21888.00
2018-04-24T14:52:49.014Z,19936.00
2018-04-24T14:53:49.182Z,15348.00
2018-04-24T14:54:49.368Z,10548.00
2018-04-24T14:55:49.549Z,12696.00
2018-04-24T14:56:49.717Z,9440.00
2018-04-24T14:57:49.894Z,13320.00
2018-04-24T14:58:50.072Z,9632.00
2018-04-24T14:59:50.248Z,17824.00
2018-04-24T15:00:50.419Z,10320.00
2018-04-24T15:01:50.594Z,12240.00
2018-04-24T15:02:50.770Z,10628.00
2018-04-24T15:03:50.942Z,10468.00
2018-04-24T15:04:51.118Z,11032.00
2018-04-24T15:05:51.298Z,10548.00
2018-04-24T15:06:51.476Z,12764.00
2018-04-24T15:07:51.648Z,9636.00
2018-04-24T15:08:51.828Z,9688.00
2018-04-24T15:09:51.999Z,8832.00
2018-04-24T15:10:52.199Z,8624.00
2018-04-24T15:11:52.362Z,8796.00
2018-04-24T15:12:52.535Z,8512.00
2018-04-24T15:13:52.701Z,7980.00
2018-04-24T15:14:52.959Z,7692.00
2018-04-24T15:15:53.050Z,7520.00
2018-04-24T15:16:53.235Z,7364.00
2018-04-24T15:17:53.410Z,7360.00
2018-04-24T15:18:53.595Z,7128.00
2018-04-24T15:19:53.768Z,7028.00
2018-04-24T15:20:53.940Z,6920.00
2018-04-24T15:21:54.108Z,6804.00
2018-04-24T15:22:54.290Z,6640.00
2018-04-24T15:23:54.463Z,6616.00
2018-04-24T15:24:54.648Z,6644.00
2018-04-24T15:25:54.814Z,6660.00
2018-04-24T15:26:54.989Z,6744.00
2018-04-24T15:27:55.158Z,6820.00
2018-04-24T15:28:55.331Z,6880.00
2018-04-24T15:29:55.506Z,6904.00
2018-04-24T15:30:55.678Z,7240.00
2018-04-24T15:31:55.863Z,7564.00
2018-04-24T15:32:56.043Z,7504.00
2018-04-24T15:33:56.223Z,7504.00
2018-04-24T15:35:50.028Z,7532.00
2018-04-24T15:36:49.699Z,7316.00
2018-04-24T15:37:49.870Z,7032.00
2018-04-24T15:38:50.037Z,7208.00
2018-04-24T15:39:50.242Z,7268.00
2018-04-24T15:40:50.413Z,7312.00
2018-04-24T15:41:50.582Z,7408.00
2018-04-24T15:42:50.759Z,7448.00
2018-04-24T15:43:50.932Z,7556.00
2018-04-24T15:44:51.106Z,7624.00
2018-04-24T15:45:51.275Z,7396.00
2018-04-24T15:46:51.470Z,7312.00
2018-04-24T15:47:51.645Z,7172.00
2018-04-24T15:48:51.827Z,7276.00
2018-04-24T15:49:51.997Z,6992.00
2018-04-24T15:50:52.175Z,6832.00
2018-04-24T15:51:52.361Z,6780.00
2018-04-24T15:52:52.543Z,6880.00
2018-04-24T15:53:52.715Z,6876.00
2018-04-24T15:54:52.901Z,6780.00
2018-04-24T15:55:53.055Z,7180.00
2018-04-24T15:56:53.245Z,6960.00
2018-04-24T15:57:53.396Z,6088.00
2018-04-24T15:58:53.575Z,5948.00
2018-04-24T15:59:53.742Z,6292.00
2018-04-24T16:00:53.921Z,6600.00
2018-04-24T16:01:54.194Z,6152.00
2018-04-24T16:02:54.286Z,5828.00
2018-04-24T16:03:54.416Z,6036.00
2018-04-24T16:04:54.589Z,5972.00
2018-04-24T16:05:54.755Z,5576.00
2018-04-24T16:06:54.931Z,5104.00
2018-04-24T16:07:55.120Z,4736.00
2018-04-24T16:08:55.297Z,4300.00
2018-04-24T16:09:55.470Z,4128.00
2018-04-24T16:10:55.641Z,4512.00
2018-04-24T16:11:55.820Z,4668.00
2018-04-24T16:12:55.981Z,4940.00
2018-04-24T16:13:56.159Z,4412.00
2018-04-24T16:14:56.337Z,4312.00
2018-04-24T16:15:56.511Z,3960.00
2018-04-24T16:16:56.706Z,3916.00
2018-04-24T16:17:56.880Z,3904.00
2018-04-24T16:18:57.042Z,4188.00
2018-04-24T16:19:57.217Z,4848.00
2018-04-24T16:20:57.390Z,5120.00
2018-04-24T16:21:57.559Z,4748.00
2018-04-24T16:22:57.735Z,4772.00
2018-04-24T16:23:57.908Z,4640.00
2018-04-24T16:24:58.080Z,4708.00
2018-04-24T16:25:58.259Z,4628.00
2018-04-24T16:26:58.429Z,4608.00
2018-04-24T16:27:58.606Z,4244.00
2018-04-24T16:28:58.787Z,3776.00
2018-04-24T16:29:58.996Z,3664.00
2018-04-24T16:30:59.154Z,3600.00
2018-04-24T16:31:59.320Z,3352.00
2018-04-24T16:32:59.491Z,3220.00
2018-04-24T16:33:59.665Z,3064.00
2018-04-24T16:34:59.849Z,2876.00
2018-04-24T16:36:00.024Z,2792.00
2018-04-24T16:37:00.205Z,2680.00
2018-04-24T16:38:00.382Z,2636.00
2018-04-24T16:39:00.561Z,2524.00
2018-04-24T16:40:00.738Z,2324.00
2018-04-24T16:41:00.951Z,2304.00
2018-04-24T16:42:01.081Z,2452.00
2018-04-24T16:43:01.260Z,2564.00
2018-04-24T16:44:01.433Z,2476.00
2018-04-24T16:45:37.836Z,2284.00
2018-04-24T16:46:33.415Z,2112.00
2018-04-24T16:47:01.885Z,2084.00
2018-04-24T16:48:02.168Z,2000.00
2018-04-24T16:49:24.279Z,1980.00
2018-04-24T16:50:02.616Z,1984.00
2018-04-24T16:51:02.794Z,1920.00
2018-04-24T16:52:02.971Z,1748.00
2018-04-24T16:58:39.374Z,2168.00
2018-04-24T16:59:35.544Z,2312.00
2018-04-24T17:00:36.024Z,2344.00
2018-04-24T17:04:09.108Z,2388.00
2018-04-24T17:05:09.307Z,2512.00
2018-04-24T17:06:09.584Z,2568.00
2018-04-24T17:07:09.666Z,2592.00
2018-04-24T17:08:10.021Z,2604.00
2018-04-24T17:09:10.060Z,2680.00
2018-04-24T17:10:10.217Z,2708.00
2018-04-24T17:11:10.390Z,2880.00
2018-04-24T17:12:10.564Z,2924.00
2018-04-24T17:13:10.734Z,2928.00
2018-04-24T17:14:10.910Z,2976.00
2018-04-24T17:15:11.092Z,2980.00
2018-04-24T17:16:11.272Z,2900.00
2018-04-24T17:17:11.436Z,2848.00
2018-04-24T17:18:11.616Z,2784.00
2018-04-24T17:19:11.788Z,2764.00
2018-04-24T17:20:11.970Z,2788.00
2018-04-24T17:21:12.157Z,2836.00
2018-04-24T17:22:12.313Z,2848.00
2018-04-24T17:23:12.530Z,2804.00
2018-04-24T17:24:13.038Z,2708.00
2018-04-24T17:25:12.942Z,2712.00
2018-04-24T17:26:13.091Z,2716.00
2018-04-24T17:27:13.387Z,2676.00
2018-04-24T17:28:13.441Z,2628.00
2018-04-24T17:29:13.616Z,2576.00
2018-04-24T17:30:13.800Z,2516.00
2018-04-24T17:31:14.113Z,2504.00
2018-04-24T17:32:14.145Z,2484.00
2018-04-24T17:33:14.510Z,2396.00
2018-04-24T17:34:14.508Z,2324.00
2018-04-24T17:35:14.687Z,2260.00
2018-04-24T17:36:14.859Z,2184.00
2018-04-24T17:37:15.086Z,2096.00
2018-04-24T17:38:15.212Z,1980.00
2018-04-24T17:39:15.377Z,1856.00
2018-04-24T17:40:15.553Z,1772.00
2018-04-24T17:41:15.741Z,1716.00
2018-04-24T17:42:16.121Z,1652.00
2018-04-24T17:43:16.068Z,1588.00
2018-04-24T17:44:16.220Z,1556.00
2018-04-24T17:45:16.587Z,1544.00
2018-04-24T17:46:16.518Z,1536.00
2018-04-24T17:47:16.691Z,1536.00
2018-04-24T17:48:16.882Z,1512.00
2018-04-24T17:49:17.197Z,1448.00
2018-04-24T17:50:17.259Z,1360.00
2018-04-24T17:51:17.435Z,1276.00
2018-04-24T17:52:17.624Z,1196.00
2018-04-24T17:53:17.803Z,1124.00
2018-04-24T17:54:17.980Z,1048.00
2018-04-24T17:55:18.155Z,976.00
2018-04-24T17:56:18.470Z,908.00
2018-04-24T17:57:18.525Z,836.00
2018-04-24T17:58:18.731Z,780.00
2018-04-24T17:59:18.859Z,744.00
2018-04-24T18:00:19.074Z,704.00
2018-04-24T18:01:19.213Z,664.00
2018-04-24T18:02:19.383Z,628.00
2018-04-24T18:03:19.655Z,588.00
2018-04-24T18:04:21.698Z,564.00
2018-04-24T18:05:19.987Z,548.00
2018-04-24T18:06:20.156Z,540.00
2018-04-24T18:07:20.543Z,532.00
2018-04-24T18:08:20.487Z,516.00
2018-04-24T18:09:20.670Z,492.00
2018-04-24T18:10:21.061Z,468.00
2018-04-24T18:11:20.967Z,448.00
2018-04-24T18:12:21.184Z,420.00
2018-04-24T18:13:21.298Z,396.00
2018-04-24T18:14:21.495Z,364.00
2018-04-24T18:15:21.666Z,340.00
2018-04-24T18:16:21.994Z,320.00
2018-04-24T18:17:22.049Z,304.00
2018-04-24T18:18:22.224Z,284.00
2018-04-24T18:19:22.404Z,264.00
2018-04-24T18:20:23.044Z,248.00
2018-04-24T18:21:22.783Z,228.00
2018-04-24T18:22:22.953Z,204.00
2018-04-24T18:23:23.122Z,184.00
2018-04-24T18:24:23.301Z,168.00
2018-04-24T18:25:23.484Z,152.00
2018-04-24T18:26:23.665Z,140.00
2018-04-24T18:27:23.835Z,128.00
2018-04-24T18:28:24.402Z,120.00
2018-04-24T18:29:24.176Z,112.00
2018-04-24T18:30:24.574Z,104.00
2018-04-24T18:31:25.254Z,92.00
2018-04-24T18:32:24.634Z,84.00
2018-04-24T18:33:24.797Z,76.00
2018-04-24T18:34:25.055Z,68.00
2018-04-24T18:35:25.254Z,64.00
2018-04-24T18:36:26.190Z,60.00
2018-04-24T18:37:25.617Z,52.00
2018-04-24T18:38:25.810Z,44.00
2018-04-24T18:39:25.964Z,40.00
2018-04-24T18:40:26.334Z,36.00
2018-04-24T18:41:26.287Z,32.00
2018-04-24T18:42:26.484Z,28.00
2018-04-24T18:43:26.642Z,24.00
2018-04-24T18:44:26.975Z,24.00
2018-04-24T18:45:27.019Z,20.00
2018-04-24T18:46:27.190Z,16.00
2018-04-24T18:47:27.402Z,12.00
2018-04-24T18:48:27.538Z,12.00
2018-04-24T18:49:27.719Z,8.00
2018-04-24T18:50:27.901Z,8.00
2018-04-24T18:51:28.063Z,8.00
2018-04-24T18:52:28.239Z,4.00
2018-04-24T18:53:28.405Z,4.00
2018-04-24T18:54:28.574Z,4.00